sensor_id;sensor_type;location;lat;lon;timestamp;temperature;humidity
69503;SHT31;56704;54.242;12.442;2023-03-02T00:02:17;1.00;94.19
69503;SHT31;56704;54.242;12.442;2023-03-02T00:04:49;1.04;94.19
69503;SHT31;56704;54.242;12.442;2023-03-02T00:07:20;1.06;94.18
69503;SHT31;56704;54.242;12.442;2023-03-02T00:09:47;1.08;94.15
69503;SHT31;56704;54.242;12.442;2023-03-02T00:12:14;1.07;94.12
69503;SHT31;56704;54.242;12.442;2023-03-02T00:14:41;1.10;94.17
69503;SHT31;56704;54.242;12.442;2023-03-02T00:17:07;1.13;94.15
69503;SHT31;56704;54.242;12.442;2023-03-02T00:19:34;1.12;94.10
69503;SHT31;56704;54.242;12.442;2023-03-02T00:22:01;1.16;94.05
69503;SHT31;56704;54.242;12.442;2023-03-02T00:24:30;1.15;94.00
69503;SHT31;56704;54.242;12.442;2023-03-02T00:26:56;1.13;93.83
69503;SHT31;56704;54.242;12.442;2023-03-02T00:29:23;1.08;93.82
69503;SHT31;56704;54.242;12.442;2023-03-02T00:31:49;1.06;93.98
69503;SHT31;56704;54.242;12.442;2023-03-02T00:34:16;1.04;93.99
69503;SHT31;56704;54.242;12.442;2023-03-02T00:36:42;1.06;94.12
69503;SHT31;56704;54.242;12.442;2023-03-02T00:39:09;1.08;94.07
69503;SHT31;56704;54.242;12.442;2023-03-02T00:41:37;1.08;94.12
69503;SHT31;56704;54.242;12.442;2023-03-02T00:44:04;1.08;94.20
69503;SHT31;56704;54.242;12.442;2023-03-02T00:46:30;1.08;94.19
69503;SHT31;56704;54.242;12.442;2023-03-02T00:48:57;1.15;94.23
69503;SHT31;56704;54.242;12.442;2023-03-02T00:51:23;1.17;94.27
69503;SHT31;56704;54.242;12.442;2023-03-02T00:53:50;1.17;94.14
69503;SHT31;56704;54.242;12.442;2023-03-02T00:56:16;1.13;94.01
69503;SHT31;56704;54.242;12.442;2023-03-02T00:58:44;1.12;94.00
69503;SHT31;56704;54.242;12.442;2023-03-02T01:01:12;1.08;94.04
69503;SHT31;56704;54.242;12.442;2023-03-02T01:03:39;1.10;94.06
69503;SHT31;56704;54.242;12.442;2023-03-02T01:06:13;1.13;94.14
69503;SHT31;56704;54.242;12.442;2023-03-02T01:08:40;1.16;94.00
69503;SHT31;56704;54.242;12.442;2023-03-02T01:11:11;1.13;93.94
69503;SHT31;56704;54.242;12.442;2023-03-02T01:13:38;1.10;94.01
69503;SHT31;56704;54.242;12.442;2023-03-02T01:16:06;1.08;94.21
69503;SHT31;56704;54.242;12.442;2023-03-02T01:18:33;1.12;94.27
69503;SHT31;56704;54.242;12.442;2023-03-02T01:21:04;1.15;94.20
69503;SHT31;56704;54.242;12.442;2023-03-02T01:23:31;1.15;94.11
69503;SHT31;56704;54.242;12.442;2023-03-02T01:25:58;1.15;94.09
69503;SHT31;56704;54.242;12.442;2023-03-02T01:28:25;1.19;94.11
69503;SHT31;56704;54.242;12.442;2023-03-02T01:30:51;1.15;93.98
69503;SHT31;56704;54.242;12.442;2023-03-02T01:33:20;1.12;93.90
69503;SHT31;56704;54.242;12.442;2023-03-02T01:35:46;1.10;93.94
69503;SHT31;56704;54.242;12.442;2023-03-02T01:38:13;1.10;93.92
69503;SHT31;56704;54.242;12.442;2023-03-02T01:40:39;1.04;93.97
69503;SHT31;56704;54.242;12.442;2023-03-02T01:43:10;1.03;94.00
69503;SHT31;56704;54.242;12.442;2023-03-02T01:45:47;1.03;94.16
69503;SHT31;56704;54.242;12.442;2023-03-02T01:48:18;1.03;94.18
69503;SHT31;56704;54.242;12.442;2023-03-02T01:50:47;1.03;94.11
69503;SHT31;56704;54.242;12.442;2023-03-02T01:53:15;1.03;94.10
69503;SHT31;56704;54.242;12.442;2023-03-02T01:55:42;1.07;94.09
69503;SHT31;56704;54.242;12.442;2023-03-02T01:58:11;1.06;93.99
69503;SHT31;56704;54.242;12.442;2023-03-02T02:00:39;1.08;94.01
69503;SHT31;56704;54.242;12.442;2023-03-02T02:03:10;1.12;94.07
69503;SHT31;56704;54.242;12.442;2023-03-02T02:05:39;1.10;94.02
69503;SHT31;56704;54.242;12.442;2023-03-02T02:08:07;1.07;94.02
69503;SHT31;56704;54.242;12.442;2023-03-02T02:10:34;1.10;94.03
69503;SHT31;56704;54.242;12.442;2023-03-02T02:13:01;1.12;94.02
69503;SHT31;56704;54.242;12.442;2023-03-02T02:15:28;1.12;94.10
69503;SHT31;56704;54.242;12.442;2023-03-02T02:17:55;1.08;94.00
69503;SHT31;56704;54.242;12.442;2023-03-02T02:20:27;1.08;93.91
69503;SHT31;56704;54.242;12.442;2023-03-02T02:23:02;1.00;93.93
69503;SHT31;56704;54.242;12.442;2023-03-02T02:25:44;1.01;94.01
69503;SHT31;56704;54.242;12.442;2023-03-02T02:28:19;1.00;93.91
69503;SHT31;56704;54.242;12.442;2023-03-02T02:30:51;0.96;93.98
69503;SHT31;56704;54.242;12.442;2023-03-02T02:33:22;0.97;93.94
69503;SHT31;56704;54.242;12.442;2023-03-02T02:35:51;1.00;93.93
69503;SHT31;56704;54.242;12.442;2023-03-02T02:38:20;1.00;93.98
69503;SHT31;56704;54.242;12.442;2023-03-02T02:40:50;0.97;93.93
69503;SHT31;56704;54.242;12.442;2023-03-02T02:43:21;0.95;94.02
69503;SHT31;56704;54.242;12.442;2023-03-02T02:45:50;0.96;93.84
69503;SHT31;56704;54.242;12.442;2023-03-02T02:48:20;0.96;93.96
69503;SHT31;56704;54.242;12.442;2023-03-02T02:50:47;0.92;93.87
69503;SHT31;56704;54.242;12.442;2023-03-02T02:53:17;0.92;93.96
69503;SHT31;56704;54.242;12.442;2023-03-02T02:55:47;0.90;93.78
69503;SHT31;56704;54.242;12.442;2023-03-02T02:58:24;0.80;93.75
69503;SHT31;56704;54.242;12.442;2023-03-02T03:00:52;0.80;93.76
69503;SHT31;56704;54.242;12.442;2023-03-02T03:03:25;0.79;93.88
69503;SHT31;56704;54.242;12.442;2023-03-02T03:05:55;0.79;93.97
69503;SHT31;56704;54.242;12.442;2023-03-02T03:08:57;0.77;94.04
69503;SHT31;56704;54.242;12.442;2023-03-02T03:11:26;0.77;93.86
69503;SHT31;56704;54.242;12.442;2023-03-02T03:14:02;0.82;94.02
69503;SHT31;56704;54.242;12.442;2023-03-02T03:16:31;0.85;94.01
69503;SHT31;56704;54.242;12.442;2023-03-02T03:19:02;0.85;93.95
69503;SHT31;56704;54.242;12.442;2023-03-02T03:21:30;0.86;93.86
69503;SHT31;56704;54.242;12.442;2023-03-02T03:23:57;0.85;93.88
69503;SHT31;56704;54.242;12.442;2023-03-02T03:26:23;0.85;93.87
69503;SHT31;56704;54.242;12.442;2023-03-02T03:28:50;0.85;93.85
69503;SHT31;56704;54.242;12.442;2023-03-02T03:31:18;0.82;93.82
69503;SHT31;56704;54.242;12.442;2023-03-02T03:33:45;0.75;93.91
69503;SHT31;56704;54.242;12.442;2023-03-02T03:36:11;0.76;93.88
69503;SHT31;56704;54.242;12.442;2023-03-02T03:38:38;0.75;93.88
69503;SHT31;56704;54.242;12.442;2023-03-02T03:41:04;0.76;93.83
69503;SHT31;56704;54.242;12.442;2023-03-02T03:43:31;0.79;93.84
69503;SHT31;56704;54.242;12.442;2023-03-02T03:45:57;0.80;93.80
69503;SHT31;56704;54.242;12.442;2023-03-02T03:48:25;0.77;93.76
69503;SHT31;56704;54.242;12.442;2023-03-02T03:50:52;0.76;93.69
69503;SHT31;56704;54.242;12.442;2023-03-02T03:53:19;0.75;93.75
69503;SHT31;56704;54.242;12.442;2023-03-02T03:55:45;0.76;93.76
69503;SHT31;56704;54.242;12.442;2023-03-02T03:58:12;0.70;93.71
69503;SHT31;56704;54.242;12.442;2023-03-02T04:00:39;0.68;93.72
69503;SHT31;56704;54.242;12.442;2023-03-02T04:03:05;0.68;93.67
69503;SHT31;56704;54.242;12.442;2023-03-02T04:05:33;0.62;93.74
69503;SHT31;56704;54.242;12.442;2023-03-02T04:08:00;0.56;93.79
69503;SHT31;56704;54.242;12.442;2023-03-02T04:10:27;0.58;93.96
69503;SHT31;56704;54.242;12.442;2023-03-02T04:12:54;0.56;94.00
69503;SHT31;56704;54.242;12.442;2023-03-02T04:15:21;0.56;94.09
69503;SHT31;56704;54.242;12.442;2023-03-02T04:17:48;0.58;94.08
69503;SHT31;56704;54.242;12.442;2023-03-02T04:20:15;0.56;94.03
69503;SHT31;56704;54.242;12.442;2023-03-02T04:22:44;0.55;94.13
69503;SHT31;56704;54.242;12.442;2023-03-02T04:25:12;0.59;94.08
69503;SHT31;56704;54.242;12.442;2023-03-02T04:27:39;0.56;94.11
69503;SHT31;56704;54.242;12.442;2023-03-02T04:30:07;0.59;94.16
69503;SHT31;56704;54.242;12.442;2023-03-02T04:32:34;0.58;94.08
69503;SHT31;56704;54.242;12.442;2023-03-02T04:35:00;0.61;94.01
69503;SHT31;56704;54.242;12.442;2023-03-02T04:37:27;0.61;94.02
69503;SHT31;56704;54.242;12.442;2023-03-02T04:39:55;0.65;94.00
69503;SHT31;56704;54.242;12.442;2023-03-02T04:42:21;0.64;93.96
69503;SHT31;56704;54.242;12.442;2023-03-02T04:44:48;0.62;93.86
69503;SHT31;56704;54.242;12.442;2023-03-02T04:47:15;0.62;93.93
69503;SHT31;56704;54.242;12.442;2023-03-02T04:49:41;0.64;93.96
69503;SHT31;56704;54.242;12.442;2023-03-02T04:52:08;0.64;94.09
69503;SHT31;56704;54.242;12.442;2023-03-02T04:54:35;0.66;94.09
69503;SHT31;56704;54.242;12.442;2023-03-02T04:57:03;0.66;93.95
69503;SHT31;56704;54.242;12.442;2023-03-02T04:59:30;0.68;94.02
69503;SHT31;56704;54.242;12.442;2023-03-02T05:01:58;0.69;94.03
69503;SHT31;56704;54.242;12.442;2023-03-02T05:04:26;0.72;93.95
69503;SHT31;56704;54.242;12.442;2023-03-02T05:06:52;0.75;93.92
69503;SHT31;56704;54.242;12.442;2023-03-02T05:09:19;0.75;93.77
69503;SHT31;56704;54.242;12.442;2023-03-02T05:11:51;0.76;93.86
69503;SHT31;56704;54.242;12.442;2023-03-02T05:14:19;0.76;93.94
69503;SHT31;56704;54.242;12.442;2023-03-02T05:16:46;0.76;93.82
69503;SHT31;56704;54.242;12.442;2023-03-02T05:19:13;0.79;93.80
69503;SHT31;56704;54.242;12.442;2023-03-02T05:21:39;0.77;93.82
69503;SHT31;56704;54.242;12.442;2023-03-02T05:24:06;0.72;93.76
69503;SHT31;56704;54.242;12.442;2023-03-02T05:26:33;0.70;93.78
69503;SHT31;56704;54.242;12.442;2023-03-02T05:28:59;0.70;93.87
69503;SHT31;56704;54.242;12.442;2023-03-02T05:31:29;0.70;93.76
69503;SHT31;56704;54.242;12.442;2023-03-02T05:33:56;0.68;93.89
69503;SHT31;56704;54.242;12.442;2023-03-02T05:36:23;0.69;94.00
69503;SHT31;56704;54.242;12.442;2023-03-02T05:38:49;0.70;94.03
69503;SHT31;56704;54.242;12.442;2023-03-02T05:41:16;0.69;94.07
69503;SHT31;56704;54.242;12.442;2023-03-02T05:43:43;0.70;94.02
69503;SHT31;56704;54.242;12.442;2023-03-02T05:46:10;0.68;94.06
69503;SHT31;56704;54.242;12.442;2023-03-02T05:48:37;0.66;94.08
69503;SHT31;56704;54.242;12.442;2023-03-02T05:51:05;0.69;94.24
69503;SHT31;56704;54.242;12.442;2023-03-02T05:53:32;0.73;94.14
69503;SHT31;56704;54.242;12.442;2023-03-02T05:55:59;0.72;94.00
69503;SHT31;56704;54.242;12.442;2023-03-02T05:58:26;0.69;94.16
69503;SHT31;56704;54.242;12.442;2023-03-02T06:00:52;0.66;94.21
69503;SHT31;56704;54.242;12.442;2023-03-02T06:03:19;0.68;94.19
69503;SHT31;56704;54.242;12.442;2023-03-02T06:05:47;0.65;94.19
69503;SHT31;56704;54.242;12.442;2023-03-02T06:08:15;0.68;94.36
69503;SHT31;56704;54.242;12.442;2023-03-02T06:10:42;0.64;94.37
69503;SHT31;56704;54.242;12.442;2023-03-02T06:13:09;0.68;94.43
69503;SHT31;56704;54.242;12.442;2023-03-02T06:15:35;0.72;94.48
69503;SHT31;56704;54.242;12.442;2023-03-02T06:18:03;0.70;94.45
69503;SHT31;56704;54.242;12.442;2023-03-02T06:20:30;0.70;94.45
69503;SHT31;56704;54.242;12.442;2023-03-02T06:22:58;0.68;94.44
69503;SHT31;56704;54.242;12.442;2023-03-02T06:25:25;0.66;94.45
69503;SHT31;56704;54.242;12.442;2023-03-02T06:27:51;0.69;94.54
69503;SHT31;56704;54.242;12.442;2023-03-02T06:30:20;0.72;94.47
69503;SHT31;56704;54.242;12.442;2023-03-02T06:32:47;0.76;94.48
69503;SHT31;56704;54.242;12.442;2023-03-02T06:35:14;0.76;94.27
69503;SHT31;56704;54.242;12.442;2023-03-02T06:37:41;0.70;94.36
69503;SHT31;56704;54.242;12.442;2023-03-02T06:40:11;0.70;94.43
69503;SHT31;56704;54.242;12.442;2023-03-02T06:42:38;0.73;94.50
69503;SHT31;56704;54.242;12.442;2023-03-02T06:45:07;0.73;94.55
69503;SHT31;56704;54.242;12.442;2023-03-02T06:47:34;0.76;94.61
69503;SHT31;56704;54.242;12.442;2023-03-02T06:50:02;0.76;94.57
69503;SHT31;56704;54.242;12.442;2023-03-02T06:52:28;0.75;94.54
69503;SHT31;56704;54.242;12.442;2023-03-02T06:54:55;0.75;94.54
69503;SHT31;56704;54.242;12.442;2023-03-02T06:57:23;0.77;94.60
69503;SHT31;56704;54.242;12.442;2023-03-02T06:59:49;0.77;94.62
69503;SHT31;56704;54.242;12.442;2023-03-02T07:02:16;0.77;94.60
69503;SHT31;56704;54.242;12.442;2023-03-02T07:04:42;0.82;94.65
69503;SHT31;56704;54.242;12.442;2023-03-02T07:07:09;0.82;94.60
69503;SHT31;56704;54.242;12.442;2023-03-02T07:09:35;0.86;94.66
69503;SHT31;56704;54.242;12.442;2023-03-02T07:12:02;0.89;94.74
69503;SHT31;56704;54.242;12.442;2023-03-02T07:14:30;0.90;94.68
69503;SHT31;56704;54.242;12.442;2023-03-02T07:16:57;0.97;94.77
69503;SHT31;56704;54.242;12.442;2023-03-02T07:19:24;1.00;94.72
69503;SHT31;56704;54.242;12.442;2023-03-02T07:21:50;1.00;94.63
69503;SHT31;56704;54.242;12.442;2023-03-02T07:24:17;1.07;94.68
69503;SHT31;56704;54.242;12.442;2023-03-02T07:26:43;1.12;94.66
69503;SHT31;56704;54.242;12.442;2023-03-02T07:29:10;1.15;94.68
69503;SHT31;56704;54.242;12.442;2023-03-02T07:31:38;1.17;94.65
69503;SHT31;56704;54.242;12.442;2023-03-02T07:34:05;1.23;94.68
69503;SHT31;56704;54.242;12.442;2023-03-02T07:36:31;1.30;94.62
69503;SHT31;56704;54.242;12.442;2023-03-02T07:38:58;1.34;94.63
69503;SHT31;56704;54.242;12.442;2023-03-02T07:41:24;1.37;94.53
69503;SHT31;56704;54.242;12.442;2023-03-02T07:43:51;1.40;94.51
69503;SHT31;56704;54.242;12.442;2023-03-02T07:46:17;1.36;94.38
69503;SHT31;56704;54.242;12.442;2023-03-02T07:48:45;1.37;94.50
69503;SHT31;56704;54.242;12.442;2023-03-02T07:51:12;1.45;94.53
69503;SHT31;56704;54.242;12.442;2023-03-02T07:53:38;1.48;94.40
69503;SHT31;56704;54.242;12.442;2023-03-02T07:56:06;1.54;94.27
69503;SHT31;56704;54.242;12.442;2023-03-02T07:58:33;1.55;94.24
69503;SHT31;56704;54.242;12.442;2023-03-02T08:00:59;1.57;94.26
69503;SHT31;56704;54.242;12.442;2023-03-02T08:03:26;1.61;94.32
69503;SHT31;56704;54.242;12.442;2023-03-02T08:05:54;1.64;94.34
69503;SHT31;56704;54.242;12.442;2023-03-02T08:08:20;1.69;94.26
69503;SHT31;56704;54.242;12.442;2023-03-02T08:10:47;1.76;94.42
69503;SHT31;56704;54.242;12.442;2023-03-02T08:13:13;1.83;94.43
69503;SHT31;56704;54.242;12.442;2023-03-02T08:15:40;1.89;94.32
69503;SHT31;56704;54.242;12.442;2023-03-02T08:18:06;2.05;94.35
69503;SHT31;56704;54.242;12.442;2023-03-02T08:20:33;2.05;94.00
69503;SHT31;56704;54.242;12.442;2023-03-02T08:23:01;2.13;94.04
69503;SHT31;56704;54.242;12.442;2023-03-02T08:25:27;2.19;93.71
69503;SHT31;56704;54.242;12.442;2023-03-02T08:27:54;2.23;93.80
69503;SHT31;56704;54.242;12.442;2023-03-02T08:30:20;2.33;93.69
69503;SHT31;56704;54.242;12.442;2023-03-02T08:32:47;2.48;93.11
69503;SHT31;56704;54.242;12.442;2023-03-02T08:35:14;2.48;93.24
69503;SHT31;56704;54.242;12.442;2023-03-02T08:37:40;2.54;93.12
69503;SHT31;56704;54.242;12.442;2023-03-02T08:40:10;2.60;93.19
69503;SHT31;56704;54.242;12.442;2023-03-02T08:42:36;2.62;93.15
69503;SHT31;56704;54.242;12.442;2023-03-02T08:45:04;2.62;92.78
69503;SHT31;56704;54.242;12.442;2023-03-02T08:47:31;2.54;92.52
69503;SHT31;56704;54.242;12.442;2023-03-02T08:49:57;2.54;92.60
69503;SHT31;56704;54.242;12.442;2023-03-02T08:52:24;2.48;92.59
69503;SHT31;56704;54.242;12.442;2023-03-02T08:54:51;2.44;92.61
69503;SHT31;56704;54.242;12.442;2023-03-02T08:57:18;2.44;92.52
69503;SHT31;56704;54.242;12.442;2023-03-02T08:59:45;2.48;92.68
69503;SHT31;56704;54.242;12.442;2023-03-02T09:02:11;2.54;92.73
69503;SHT31;56704;54.242;12.442;2023-03-02T09:04:38;2.56;92.42
69503;SHT31;56704;54.242;12.442;2023-03-02T09:07:05;2.60;92.34
69503;SHT31;56704;54.242;12.442;2023-03-02T09:09:31;2.61;92.22
69503;SHT31;56704;54.242;12.442;2023-03-02T09:11:58;2.65;92.19
69503;SHT31;56704;54.242;12.442;2023-03-02T09:14:26;2.71;92.19
69503;SHT31;56704;54.242;12.442;2023-03-02T09:16:53;2.77;92.20
69503;SHT31;56704;54.242;12.442;2023-03-02T09:19:19;2.81;92.14
69503;SHT31;56704;54.242;12.442;2023-03-02T09:21:46;2.84;91.87
69503;SHT31;56704;54.242;12.442;2023-03-02T09:24:14;2.84;91.81
69503;SHT31;56704;54.242;12.442;2023-03-02T09:26:40;2.94;92.06
69503;SHT31;56704;54.242;12.442;2023-03-02T09:29:07;2.92;91.79
69503;SHT31;56704;54.242;12.442;2023-03-02T09:31:35;2.97;91.72
69503;SHT31;56704;54.242;12.442;2023-03-02T09:34:02;2.98;91.94
69503;SHT31;56704;54.242;12.442;2023-03-02T09:36:29;2.94;92.02
69503;SHT31;56704;54.242;12.442;2023-03-02T09:38:57;2.92;91.70
69503;SHT31;56704;54.242;12.442;2023-03-02T09:44:54;2.87;91.62
69503;SHT31;56704;54.242;12.442;2023-03-02T09:47:32;2.88;91.57
69503;SHT31;56704;54.242;12.442;2023-03-02T09:50:09;2.99;91.85
69503;SHT31;56704;54.242;12.442;2023-03-02T09:52:39;3.01;91.25
69503;SHT31;56704;54.242;12.442;2023-03-02T09:55:13;3.02;91.33
69503;SHT31;56704;54.242;12.442;2023-03-02T09:57:40;2.98;91.17
69503;SHT31;56704;54.242;12.442;2023-03-02T10:00:12;3.05;91.55
69503;SHT31;56704;54.242;12.442;2023-03-02T10:02:46;3.09;91.21
69503;SHT31;56704;54.242;12.442;2023-03-02T10:05:16;3.13;91.41
69503;SHT31;56704;54.242;12.442;2023-03-02T10:07:45;3.18;91.24
69503;SHT31;56704;54.242;12.442;2023-03-02T10:10:22;3.18;91.21
69503;SHT31;56704;54.242;12.442;2023-03-02T10:12:57;3.18;90.90
69503;SHT31;56704;54.242;12.442;2023-03-02T10:15:32;3.25;91.05
69503;SHT31;56704;54.242;12.442;2023-03-02T10:18:17;3.32;90.86
69503;SHT31;56704;54.242;12.442;2023-03-02T10:20:50;3.36;90.84
69503;SHT31;56704;54.242;12.442;2023-03-02T10:23:30;3.35;90.67
69503;SHT31;56704;54.242;12.442;2023-03-02T10:26:03;3.40;90.65
69503;SHT31;56704;54.242;12.442;2023-03-02T10:28:34;3.55;91.25
69503;SHT31;56704;54.242;12.442;2023-03-02T10:31:08;3.74;90.98
69503;SHT31;56704;54.242;12.442;2023-03-02T10:33:38;3.87;90.33
69503;SHT31;56704;54.242;12.442;2023-03-02T10:36:15;3.84;89.93
69503;SHT31;56704;54.242;12.442;2023-03-02T10:38:43;3.91;90.64
69503;SHT31;56704;54.242;12.442;2023-03-02T10:41:13;4.05;90.37
69503;SHT31;56704;54.242;12.442;2023-03-02T10:43:43;4.11;89.78
69503;SHT31;56704;54.242;12.442;2023-03-02T10:46:12;4.18;89.86
69503;SHT31;56704;54.242;12.442;2023-03-02T10:48:48;4.12;89.11
69503;SHT31;56704;54.242;12.442;2023-03-02T10:51:21;3.98;89.32
69503;SHT31;56704;54.242;12.442;2023-03-02T10:53:48;3.99;89.60
69503;SHT31;56704;54.242;12.442;2023-03-02T10:56:18;4.14;89.77
69503;SHT31;56704;54.242;12.442;2023-03-02T10:58:45;4.19;89.66
69503;SHT31;56704;54.242;12.442;2023-03-02T11:01:16;4.27;89.21
69503;SHT31;56704;54.242;12.442;2023-03-02T11:03:54;4.28;88.97
69503;SHT31;56704;54.242;12.442;2023-03-02T11:06:22;4.22;88.83
69503;SHT31;56704;54.242;12.442;2023-03-02T11:08:57;4.17;88.60
69503;SHT31;56704;54.242;12.442;2023-03-02T11:11:24;4.09;87.93
69503;SHT31;56704;54.242;12.442;2023-03-02T11:13:51;4.14;88.19
69503;SHT31;56704;54.242;12.442;2023-03-02T11:16:25;4.19;88.61
69503;SHT31;56704;54.242;12.442;2023-03-02T11:18:57;4.14;88.34
69503;SHT31;56704;54.242;12.442;2023-03-02T11:21:29;4.25;88.65
69503;SHT31;56704;54.242;12.442;2023-03-02T11:24:05;4.24;88.24
69503;SHT31;56704;54.242;12.442;2023-03-02T11:26:36;4.34;88.49
69503;SHT31;56704;54.242;12.442;2023-03-02T11:29:05;4.45;88.09
69503;SHT31;56704;54.242;12.442;2023-03-02T11:31:42;4.45;87.89
69503;SHT31;56704;54.242;12.442;2023-03-02T11:37:38;4.44;86.80
69503;SHT31;56704;54.242;12.442;2023-03-02T11:40:16;4.45;87.17
69503;SHT31;56704;54.242;12.442;2023-03-02T11:42:45;4.35;87.19
69503;SHT31;56704;54.242;12.442;2023-03-02T11:45:19;4.35;87.47
69503;SHT31;56704;54.242;12.442;2023-03-02T11:47:50;4.38;87.27
69503;SHT31;56704;54.242;12.442;2023-03-02T11:50:18;4.31;87.07
69503;SHT31;56704;54.242;12.442;2023-03-02T11:52:49;4.42;87.71
69503;SHT31;56704;54.242;12.442;2023-03-02T11:55:19;4.49;87.20
69503;SHT31;56704;54.242;12.442;2023-03-02T11:57:48;4.65;87.52
69503;SHT31;56704;54.242;12.442;2023-03-02T12:00:25;4.59;86.36
69503;SHT31;56704;54.242;12.442;2023-03-02T12:03:03;4.52;86.60
69503;SHT31;56704;54.242;12.442;2023-03-02T12:05:32;4.44;86.65
69503;SHT31;56704;54.242;12.442;2023-03-02T12:08:04;4.24;86.37
69503;SHT31;56704;54.242;12.442;2023-03-02T12:10:34;4.32;86.30
69503;SHT31;56704;54.242;12.442;2023-03-02T12:13:09;4.44;86.67
69503;SHT31;56704;54.242;12.442;2023-03-02T12:15:39;4.37;86.81
69503;SHT31;56704;54.242;12.442;2023-03-02T12:18:15;4.38;86.54
69503;SHT31;56704;54.242;12.442;2023-03-02T12:20:41;4.55;87.10
69503;SHT31;56704;54.242;12.442;2023-03-02T12:23:21;4.52;85.91
69503;SHT31;56704;54.242;12.442;2023-03-02T12:25:48;4.44;85.50
69503;SHT31;56704;54.242;12.442;2023-03-02T12:28:28;4.45;85.88
69503;SHT31;56704;54.242;12.442;2023-03-02T12:31:00;4.50;86.46
69503;SHT31;56704;54.242;12.442;2023-03-02T12:33:28;4.48;86.37
69503;SHT31;56704;54.242;12.442;2023-03-02T12:36:03;4.37;86.17
69503;SHT31;56704;54.242;12.442;2023-03-02T12:38:32;4.35;86.25
69503;SHT31;56704;54.242;12.442;2023-03-02T12:41:20;4.44;86.00
69503;SHT31;56704;54.242;12.442;2023-03-02T12:43:57;4.46;84.92
69503;SHT31;56704;54.242;12.442;2023-03-02T12:46:29;4.48;85.26
69503;SHT31;56704;54.242;12.442;2023-03-02T12:49:12;4.50;85.31
69503;SHT31;56704;54.242;12.442;2023-03-02T12:51:47;4.68;85.44
69503;SHT31;56704;54.242;12.442;2023-03-02T12:54:17;4.77;85.10
69503;SHT31;56704;54.242;12.442;2023-03-02T12:56:45;4.70;84.40
69503;SHT31;56704;54.242;12.442;2023-03-02T12:59:23;4.65;85.31
69503;SHT31;56704;54.242;12.442;2023-03-02T13:01:50;4.58;84.89
69503;SHT31;56704;54.242;12.442;2023-03-02T13:04:24;4.56;84.80
69503;SHT31;56704;54.242;12.442;2023-03-02T13:06:52;4.72;85.02
69503;SHT31;56704;54.242;12.442;2023-03-02T13:09:20;5.68;83.16
69503;SHT31;56704;54.242;12.442;2023-03-02T13:11:48;6.52;80.74
69503;SHT31;56704;54.242;12.442;2023-03-02T13:14:21;6.44;79.45
69503;SHT31;56704;54.242;12.442;2023-03-02T13:16:54;6.48;79.64
69503;SHT31;56704;54.242;12.442;2023-03-02T13:19:21;6.20;79.92
69503;SHT31;56704;54.242;12.442;2023-03-02T13:21:48;6.93;77.45
69503;SHT31;56704;54.242;12.442;2023-03-02T13:24:25;6.82;77.66
69503;SHT31;56704;54.242;12.442;2023-03-02T13:26:56;8.30;77.84
69503;SHT31;56704;54.242;12.442;2023-03-02T13:29:25;8.09;74.10
69503;SHT31;56704;54.242;12.442;2023-03-02T13:31:52;7.67;75.35
69503;SHT31;56704;54.242;12.442;2023-03-02T13:34:21;8.84;72.02
69503;SHT31;56704;54.242;12.442;2023-03-02T13:36:48;8.30;71.79
69503;SHT31;56704;54.242;12.442;2023-03-02T13:39:18;7.73;73.70
69503;SHT31;56704;54.242;12.442;2023-03-02T13:41:53;7.29;75.99
69503;SHT31;56704;54.242;12.442;2023-03-02T13:44:25;6.92;74.51
69503;SHT31;56704;54.242;12.442;2023-03-02T13:46:52;6.64;77.62
69503;SHT31;56704;54.242;12.442;2023-03-02T13:49:26;6.54;77.30
69503;SHT31;56704;54.242;12.442;2023-03-02T13:52:00;6.44;78.54
69503;SHT31;56704;54.242;12.442;2023-03-02T13:54:29;6.55;78.36
69503;SHT31;56704;54.242;12.442;2023-03-02T13:56:59;6.64;78.12
69503;SHT31;56704;54.242;12.442;2023-03-02T13:59:26;6.50;77.90
69503;SHT31;56704;54.242;12.442;2023-03-02T14:01:53;7.31;77.23
69503;SHT31;56704;54.242;12.442;2023-03-02T14:04:21;7.84;75.55
69503;SHT31;56704;54.242;12.442;2023-03-02T14:06:48;7.49;75.37
69503;SHT31;56704;54.242;12.442;2023-03-02T14:09:15;7.20;77.13
69503;SHT31;56704;54.242;12.442;2023-03-02T14:11:44;6.79;76.86
69503;SHT31;56704;54.242;12.442;2023-03-02T14:14:15;6.34;77.00
69503;SHT31;56704;54.242;12.442;2023-03-02T14:16:42;6.02;78.68
69503;SHT31;56704;54.242;12.442;2023-03-02T14:19:09;5.92;79.84
69503;SHT31;56704;54.242;12.442;2023-03-02T14:21:37;5.79;80.08
69503;SHT31;56704;54.242;12.442;2023-03-02T14:24:05;5.72;80.62
69503;SHT31;56704;54.242;12.442;2023-03-02T14:26:33;5.52;81.36
69503;SHT31;56704;54.242;12.442;2023-03-02T14:29:03;5.47;81.12
69503;SHT31;56704;54.242;12.442;2023-03-02T14:31:33;5.38;81.43
69503;SHT31;56704;54.242;12.442;2023-03-02T14:34:00;5.14;81.36
69503;SHT31;56704;54.242;12.442;2023-03-02T14:36:28;5.08;82.39
69503;SHT31;56704;54.242;12.442;2023-03-02T14:38:55;5.17;82.54
69503;SHT31;56704;54.242;12.442;2023-03-02T14:41:23;5.21;81.77
69503;SHT31;56704;54.242;12.442;2023-03-02T14:43:50;5.23;82.10
69503;SHT31;56704;54.242;12.442;2023-03-02T14:46:17;5.39;82.21
69503;SHT31;56704;54.242;12.442;2023-03-02T14:48:45;5.31;81.54
69503;SHT31;56704;54.242;12.442;2023-03-02T14:51:19;5.18;81.72
69503;SHT31;56704;54.242;12.442;2023-03-02T14:53:47;5.11;82.47
69503;SHT31;56704;54.242;12.442;2023-03-02T14:56:16;5.11;82.12
69503;SHT31;56704;54.242;12.442;2023-03-02T14:58:43;5.16;81.96
69503;SHT31;56704;54.242;12.442;2023-03-02T15:01:11;5.18;81.61
69503;SHT31;56704;54.242;12.442;2023-03-02T15:03:37;5.20;81.75
69503;SHT31;56704;54.242;12.442;2023-03-02T15:06:21;5.06;81.43
69503;SHT31;56704;54.242;12.442;2023-03-02T15:08:50;4.93;82.04
69503;SHT31;56704;54.242;12.442;2023-03-02T15:11:16;4.81;82.82
69503;SHT31;56704;54.242;12.442;2023-03-02T15:13:43;4.75;82.62
